Time;durP1;ratioP1;P1;durP2;ratioP2;P2;SDS_P1;SDS_P2;PMS_P1;PMS_P2;Temp;Humidity;BMP_temperature;BMP_pressure;BME280_temperature;BME280_humidity;BME280_pressure;Samples;Min_cycle;Max_cycle;Signal;HPM_P1;HPM_P2
2021/08/01 00:01:46;;;;;;;;;;;14.50;94.30;;;17.80;80.19;100857.16;4358122;39;97847;-78
2021/08/01 00:04:50;;;;;;;;;;;14.50;94.30;;;17.78;80.32;100849.41;4359309;39;96835;-78
2021/08/01 00:07:54;;;;;;;;;;;14.50;94.30;;;17.70;79.66;100841.41;4379603;39;97995;-78
2021/08/01 00:11:00;;;;;;;;;;;14.50;94.30;;;17.57;80.19;100834.47;4380813;39;97541;-78
2021/08/01 00:14:04;;;;;;;;;;;14.40;94.20;;;17.54;80.83;100843.28;4379594;39;96687;-78
2021/08/01 00:17:08;;;;;;;;;;;14.40;94.20;;;17.44;80.64;100839.16;4375255;39;97505;-78
2021/08/01 00:20:12;;;;;;;;;;;14.30;94.10;;;17.47;80.36;100843.88;4379422;39;97798;-78
2021/08/01 00:23:16;;;;;;;;;;;14.30;94.20;;;17.47;80.79;100838.47;4368754;39;98467;-78
2021/08/01 00:26:21;;;;;;;;;;;14.30;94.30;;;17.42;80.13;100846.84;4379856;39;97556;-78
2021/08/01 00:29:25;;;;;;;;;;;14.20;94.20;;;17.42;79.83;100844.13;4374978;39;97719;-78
2021/08/01 00:32:29;;;;;;;;;;;14.20;94.20;;;17.43;80.56;100847.63;4382504;39;97643;-78
2021/08/01 00:35:32;;;;;;;;;;;14.20;94.30;;;17.39;80.51;100847.50;4379756;39;96623;-78
2021/08/01 00:38:38;;;;;;;;;;;14.20;94.30;;;17.47;80.04;100857.44;4378336;39;97247;-78
2021/08/01 00:41:43;;;;;;;;;;;14.20;94.40;;;17.45;80.37;100846.16;4380573;39;97507;-78
2021/08/01 00:44:47;;;;;;;;;;;14.20;94.40;;;17.47;80.96;100854.72;4378430;39;99976;-78
2021/08/01 00:47:52;;;;;;;;;;;14.20;94.50;;;17.58;81.52;100853.09;4375066;39;97171;-78
2021/08/01 00:50:56;;;;;;;;;;;14.20;94.60;;;17.65;81.29;100850.56;4366339;39;98659;-78
2021/08/01 00:54:01;;;;;;;;;;;14.30;94.70;;;17.76;81.37;100848.16;4379472;39;97584;-78
2021/08/01 00:57:09;;;;;;;;;;;14.30;94.90;;;17.86;81.16;100853.06;4380671;39;96847;-78
2021/08/01 01:00:21;;;;;;;;;;;14.30;94.80;;;17.91;81.50;100847.41;4373959;39;97388;-78
2021/08/01 01:03:30;;;;;;;;;;;14.40;94.80;;;17.97;80.67;100843.31;4386918;39;97728;-78
2021/08/01 01:06:43;;;;;;;;;;;14.40;94.80;;;18.00;80.95;100839.91;4382294;39;100384;-78
2021/08/01 01:09:55;;;;;;;;;;;14.50;94.80;;;18.00;81.08;100840.66;4378395;39;96761;-78
2021/08/01 01:13:25;;;;;;;;;;;14.50;94.80;;;18.06;81.24;100846.63;4373857;39;97482;-78
2021/08/01 01:16:37;;;;;;;;;;;14.60;94.80;;;18.13;80.99;100844.91;4378301;39;98409;-78
2021/08/01 01:20:15;;;;;;;;;;;14.60;94.80;;;18.06;81.35;100839.31;4382115;39;97059;-78
2021/08/01 01:23:39;;;;;;;;;;;14.60;94.70;;;18.12;80.89;100837.09;4381572;39;97912;-78
2021/08/01 01:27:03;;;;;;;;;;;14.60;94.80;;;18.15;81.52;100834.50;4359421;39;96794;-78
2021/08/01 01:30:10;;;;;;;;;;;14.60;94.80;;;18.22;80.64;100831.94;4365994;39;98044;-78
2021/08/01 01:33:20;;;;;;;;;;;14.70;95.10;;;18.25;80.61;100820.41;4372530;39;96663;-78
2021/08/01 01:36:28;;;;;;;;;;;14.70;94.90;;;18.29;80.80;100826.72;4374196;39;96854;-78
2021/08/01 01:39:36;;;;;;;;;;;14.70;94.90;;;18.32;80.98;100822.53;4384806;39;97596;-78
2021/08/01 01:43:08;;;;;;;;;;;14.80;94.90;;;18.37;81.13;100820.34;4371038;39;97622;-78
2021/08/01 01:46:13;;;;;;;;;;;14.80;94.90;;;18.35;80.71;100817.19;4354576;39;97678;-78
2021/08/01 01:49:18;;;;;;;;;;;14.80;94.90;;;18.34;80.81;100821.06;4384971;39;97561;-78
2021/08/01 01:52:34;;;;;;;;;;;14.90;94.90;;;18.30;80.44;100811.25;4372841;39;97536;-78
2021/08/01 01:55:47;;;;;;;;;;;14.80;94.80;;;18.29;80.36;100810.44;4383013;39;97489;-78
2021/08/01 01:58:51;;;;;;;;;;;14.80;94.80;;;18.21;80.64;100811.38;4369046;39;96649;-78
2021/08/01 02:01:55;;;;;;;;;;;14.80;94.80;;;18.24;80.60;100809.91;4383673;39;97618;-79
2021/08/01 02:04:59;;;;;;;;;;;14.80;94.80;;;18.18;80.46;100806.66;4375729;39;96611;-79
2021/08/01 02:08:54;;;;;;;;;;;14.80;94.80;;;18.16;80.25;100808.94;4394508;39;97596;-78
2021/08/01 02:12:27;;;;;;;;;;;14.70;94.70;;;18.19;80.40;100815.59;4394252;39;96643;-78
2021/08/01 02:15:39;;;;;;;;;;;14.70;94.70;;;18.16;80.08;100808.94;4380438;39;96568;-78
2021/08/01 02:18:50;;;;;;;;;;;14.60;94.80;;;18.16;80.27;100808.94;4381493;39;97034;-78
2021/08/01 02:21:56;;;;;;;;;;;14.60;94.80;;;18.08;80.62;100801.78;4375048;39;97263;-78
2021/08/01 02:25:03;;;;;;;;;;;14.60;94.70;;;18.10;80.19;100795.97;4379399;39;97548;-78
2021/08/01 02:28:08;;;;;;;;;;;14.60;94.80;;;18.10;80.00;100799.50;4373688;39;96549;-78
2021/08/01 02:31:13;;;;;;;;;;;14.60;94.80;;;18.06;80.54;100795.91;4378191;39;98823;-78
2021/08/01 02:34:17;;;;;;;;;;;14.60;94.80;;;18.13;80.22;100787.16;4379668;39;97435;-79
2021/08/01 02:37:22;;;;;;;;;;;14.60;94.80;;;18.11;80.65;100792.94;4363048;39;96559;-78
2021/08/01 02:40:30;;;;;;;;;;;14.60;94.80;;;18.03;80.87;100788.47;4371206;39;96756;-78
2021/08/01 02:43:35;;;;;;;;;;;14.60;94.80;;;18.12;80.40;100791.78;4379607;39;97325;-79
2021/08/01 02:46:43;;;;;;;;;;;14.60;94.90;;;18.14;80.41;100783.28;4380827;39;116953;-78
2021/08/01 02:49:50;;;;;;;;;;;14.60;94.90;;;18.17;80.97;100783.38;4386599;39;97149;-77
2021/08/01 02:52:59;;;;;;;;;;;14.60;95.00;;;18.20;80.25;100782.69;4386223;39;97769;-77
2021/08/01 02:56:10;;;;;;;;;;;14.60;95.00;;;18.22;80.62;100783.13;4371480;39;96855;-78
2021/08/01 02:59:18;;;;;;;;;;;14.60;95.00;;;18.25;80.83;100787.84;4373431;39;97636;-78
2021/08/01 03:02:23;;;;;;;;;;;14.60;95.00;;;18.24;80.35;100785.50;4374104;39;96879;-78
2021/08/01 03:05:32;;;;;;;;;;;14.70;95.00;;;18.21;81.02;100786.97;4378327;39;96671;-78
2021/08/01 03:08:37;;;;;;;;;;;14.70;95.00;;;18.20;80.83;100793.53;4364381;39;96946;-78
2021/08/01 03:11:42;;;;;;;;;;;14.70;95.00;;;18.21;80.76;100803.25;4355328;39;99131;-78
2021/08/01 03:14:47;;;;;;;;;;;14.70;95.00;;;18.24;80.56;100801.78;4368147;39;97095;-78
2021/08/01 03:17:51;;;;;;;;;;;14.70;95.00;;;18.25;80.27;100804.13;4372915;39;97009;-78
2021/08/01 03:20:55;;;;;;;;;;;14.60;94.90;;;18.20;80.77;100798.19;4378706;39;97733;-78
2021/08/01 03:23:58;;;;;;;;;;;14.70;95.00;;;18.16;81.13;100808.13;4384192;39;98908;-78
2021/08/01 03:27:14;;;;;;;;;;;14.60;94.90;;;18.14;81.29;100807.69;4370984;39;97537;-78
2021/08/01 03:30:19;;;;;;;;;;;14.60;94.90;;;18.16;80.85;100811.66;4368609;39;97590;-78
2021/08/01 03:33:23;;;;;;;;;;;14.60;95.00;;;18.18;80.79;100814.03;4380489;39;96651;-78
2021/08/01 03:36:28;;;;;;;;;;;14.60;95.00;;;18.17;80.69;100809.75;4371609;39;96667;-77
2021/08/01 03:39:40;;;;;;;;;;;14.60;95.00;;;18.18;81.32;100812.09;4371964;39;97625;-78
2021/08/01 03:42:47;;;;;;;;;;;14.70;95.00;;;18.19;80.61;100813.66;4362093;39;97643;-78
2021/08/01 03:45:51;;;;;;;;;;;14.70;95.10;;;18.21;80.80;100816.81;4370691;39;97283;-78
2021/08/01 03:48:55;;;;;;;;;;;14.70;95.30;;;18.25;80.44;100820.41;4379889;39;96820;-78
2021/08/01 03:51:59;;;;;;;;;;;14.70;95.10;;;18.24;81.02;100820.75;4372144;39;96863;-78
2021/08/01 03:55:07;;;;;;;;;;;14.70;95.10;;;18.26;80.93;100813.06;4387583;39;97601;-78
2021/08/01 03:58:12;;;;;;;;;;;14.70;95.10;;;18.26;80.69;100813.84;4383550;39;97673;-78
2021/08/01 04:01:16;;;;;;;;;;;14.70;95.00;;;18.26;80.75;100818.47;4366467;39;97573;-79
2021/08/01 04:04:20;;;;;;;;;;;14.70;95.00;;;18.28;81.03;100813.53;4371187;39;98167;-78
2021/08/01 04:07:24;;;;;;;;;;;14.70;95.10;;;18.33;80.45;100818.69;4378903;39;97404;-78
2021/08/01 04:10:27;;;;;;;;;;;14.80;95.10;;;18.34;80.41;100812.13;4371162;39;97707;-78
2021/08/01 04:13:33;;;;;;;;;;;14.80;95.10;;;18.37;80.27;100823.06;4379848;39;97435;-78
2021/08/01 04:16:36;;;;;;;;;;;14.80;95.10;;;18.39;80.10;100812.66;4376503;39;100522;-79
2021/08/01 04:19:41;;;;;;;;;;;14.80;95.10;;;18.39;80.39;100814.56;4380703;39;96767;-78
2021/08/01 04:22:45;;;;;;;;;;;14.80;95.10;;;18.38;80.49;100816.50;4379178;39;97829;-78
2021/08/01 04:25:48;;;;;;;;;;;14.90;95.00;;;18.49;80.39;100825.66;4380898;39;96849;-78
2021/08/01 04:28:53;;;;;;;;;;;14.90;95.00;;;18.54;80.43;100822.69;4377587;39;97011;-78
2021/08/01 04:31:57;;;;;;;;;;;14.90;95.00;;;18.63;80.07;100812.44;4378695;39;98114;-78
2021/08/01 04:35:01;;;;;;;;;;;14.90;95.00;;;18.57;80.61;100811.13;4380758;39;97472;-78
2021/08/01 04:38:07;;;;;;;;;;;15.00;95.10;;;18.66;80.32;100817.16;4378569;39;97562;-78
2021/08/01 04:41:10;;;;;;;;;;;15.00;95.00;;;18.65;80.70;100818.31;4373597;39;97545;-78
2021/08/01 04:44:16;;;;;;;;;;;15.00;95.00;;;18.61;80.65;100806.56;4362431;39;96747;-78
2021/08/01 04:47:19;;;;;;;;;;;15.10;95.00;;;18.67;80.43;100815.22;4381868;39;97525;-78
2021/08/01 04:50:23;;;;;;;;;;;15.10;95.00;;;18.73;80.73;100811.09;4379184;39;97830;-78
2021/08/01 04:53:27;;;;;;;;;;;15.20;95.00;;;18.79;80.58;100810.47;4363283;39;97679;-78
2021/08/01 04:56:31;;;;;;;;;;;15.20;95.00;;;18.85;80.63;100816.41;4379523;39;96690;-78
2021/08/01 04:59:36;;;;;;;;;;;15.20;94.90;;;18.84;80.48;100828.44;4379813;39;97698;-78
2021/08/01 05:02:40;;;;;;;;;;;15.30;94.90;;;18.83;80.78;100819.47;4378885;39;96869;-78
2021/08/01 05:05:45;;;;;;;;;;;15.30;94.90;;;18.81;80.74;100821.75;4381627;39;97197;-78
2021/08/01 05:08:49;;;;;;;;;;;15.30;94.80;;;18.87;80.72;100831.19;4382294;39;97817;-78
2021/08/01 05:11:53;;;;;;;;;;;15.30;94.80;;;18.89;80.71;100823.47;4381597;39;96756;-78
2021/08/01 05:14:58;;;;;;;;;;;15.40;94.90;;;18.99;80.64;100817.53;4372240;39;97598;-78
2021/08/01 05:18:04;;;;;;;;;;;15.40;94.80;;;19.14;79.96;100811.22;4380165;39;98119;-78
2021/08/01 05:21:08;;;;;;;;;;;15.50;94.80;;;19.22;79.79;100810.28;4374810;39;97648;-78
2021/08/01 05:24:12;;;;;;;;;;;15.60;94.70;;;19.26;79.58;100811.16;4371144;39;96678;-78
2021/08/01 05:27:16;;;;;;;;;;;15.60;94.70;;;19.39;79.38;100815.28;4377336;39;96663;-78
2021/08/01 05:30:21;;;;;;;;;;;15.70;94.60;;;19.53;79.25;100815.56;4371875;39;97608;-78
2021/08/01 05:33:26;;;;;;;;;;;15.80;94.60;;;19.62;79.12;100816.13;4378568;39;97064;-78
2021/08/01 05:36:30;;;;;;;;;;;15.80;94.60;;;19.67;79.06;100815.84;4376253;39;97457;-78
2021/08/01 05:39:35;;;;;;;;;;;15.90;94.50;;;19.71;79.13;100814.75;4378020;39;97156;-78
2021/08/01 05:42:41;;;;;;;;;;;16.00;94.40;;;19.79;78.77;100807.50;4387436;39;97672;-78
2021/08/01 05:45:46;;;;;;;;;;;16.10;94.40;;;19.88;78.40;100806.13;4378522;39;97740;-78
2021/08/01 05:48:50;;;;;;;;;;;16.10;94.30;;;19.94;78.57;100807.41;4370100;39;97667;-77
2021/08/01 05:51:54;;;;;;;;;;;16.20;94.30;;;20.07;78.02;100799.88;4381452;39;96666;-77
2021/08/01 05:54:58;;;;;;;;;;;16.20;94.20;;;20.31;78.03;100792.13;4372020;39;96693;-78
2021/08/01 05:58:04;;;;;;;;;;;16.30;94.20;;;20.55;77.31;100788.22;4380168;39;97568;-78
2021/08/01 06:01:13;;;;;;;;;;;16.50;94.10;;;20.86;76.22;100784.03;4381258;39;96979;-78
2021/08/01 06:04:17;;;;;;;;;;;16.70;94.00;;;21.18;75.45;100779.78;4386289;39;96573;-78
2021/08/01 06:07:22;;;;;;;;;;;17.00;94.00;;;21.53;74.14;100772.00;4374759;39;97966;-78
2021/08/01 06:10:35;;;;;;;;;;;17.20;93.40;;;22.01;73.80;100776.41;4373715;39;97863;-78
2021/08/01 06:13:40;;;;;;;;;;;17.50;93.20;;;23.39;69.41;100779.63;4357490;39;97774;-78
2021/08/01 06:16:45;;;;;;;;;;;18.20;92.70;;;24.51;67.03;100783.34;4374301;39;97510;-78
2021/08/01 06:19:49;;;;;;;;;;;19.10;91.60;;;25.47;65.01;100777.16;4377142;39;97509;-78
2021/08/01 06:22:52;;;;;;;;;;;19.90;90.30;;;26.35;63.18;100778.91;4355793;39;97027;-78
2021/08/01 06:25:56;;;;;;;;;;;20.60;89.00;;;25.70;65.78;100776.25;4369310;39;97484;-78
2021/08/01 06:29:00;;;;;;;;;;;20.80;88.20;;;25.91;65.88;100783.59;4371203;39;98341;-78
2021/08/01 06:32:07;;;;;;;;;;;21.00;88.40;;;26.89;63.23;100774.44;4371041;39;97526;-78
2021/08/01 06:35:11;;;;;;;;;;;21.70;86.80;;;28.01;61.36;100777.28;4381190;39;96769;-78
2021/08/01 06:38:15;;;;;;;;;;;22.40;85.90;;;27.47;63.45;100772.16;4371954;39;97421;-78
2021/08/01 06:41:19;;;;;;;;;;;22.50;85.30;;;27.85;62.51;100776.38;4380966;39;98295;-78
2021/08/01 06:44:22;;;;;;;;;;;22.80;85.10;;;27.48;64.24;100785.50;4381257;39;96802;-78
2021/08/01 06:47:27;;;;;;;;;;;22.90;84.70;;;27.09;66.19;100783.69;4382523;39;97501;-78
2021/08/01 06:50:32;;;;;;;;;;;22.70;85.80;;;26.83;67.12;100790.59;4378595;39;98073;-78
2021/08/01 06:53:36;;;;;;;;;;;22.50;86.60;;;26.45;68.27;100782.75;4369059;39;98249;-78
2021/08/01 06:56:39;;;;;;;;;;;22.30;87.20;;;26.11;69.17;100779.09;4371816;39;97005;-78
2021/08/01 06:59:43;;;;;;;;;;;22.10;87.80;;;26.49;68.29;100786.25;4372596;39;98577;-78
2021/08/01 07:02:53;;;;;;;;;;;22.10;88.40;;;26.67;67.83;100784.09;4362382;39;100332;-78
2021/08/01 07:05:57;;;;;;;;;;;22.20;88.20;;;26.86;67.15;100791.78;4364327;39;97988;-78
2021/08/01 07:09:01;;;;;;;;;;;22.30;88.10;;;27.54;65.34;100783.09;4371856;39;99750;-78
2021/08/01 07:12:07;;;;;;;;;;;22.50;87.90;;;28.38;63.24;100785.34;4382373;39;101283;-78
2021/08/01 07:15:13;;;;;;;;;;;22.90;86.30;;;28.76;62.10;100783.09;4378974;39;96718;-77
2021/08/01 07:18:18;;;;;;;;;;;23.40;85.10;;;30.73;57.78;100786.50;4381813;39;97572;-78
2021/08/01 07:21:22;;;;;;;;;;;24.40;83.60;;;29.21;62.49;100787.72;4378603;39;97573;-78
2021/08/01 07:24:25;;;;;;;;;;;24.50;83.10;;;31.71;56.16;100788.00;4383777;39;96862;-78
2021/08/01 07:27:29;;;;;;;;;;;25.20;82.10;;;31.54;57.58;100775.44;4373722;39;97547;-77
2021/08/01 07:30:33;;;;;;;;;;;25.60;81.60;;;32.82;54.76;100783.47;4374228;39;97502;-78
2021/08/01 07:33:38;;;;;;;;;;;26.20;81.00;;;30.78;60.83;100781.97;4373402;39;97508;-78
2021/08/01 07:36:42;;;;;;;;;;;26.10;81.20;;;29.64;63.62;100774.56;4371279;39;98660;-78
2021/08/01 07:39:46;;;;;;;;;;;25.70;81.30;;;31.77;57.86;100783.44;4378808;39;97616;-78
2021/08/01 07:42:50;;;;;;;;;;;25.70;81.30;;;32.25;57.12;100785.88;4381387;39;98873;-78
2021/08/01 07:45:54;;;;;;;;;;;26.40;80.30;;;32.01;58.73;100783.88;4382883;39;97560;-78
2021/08/01 07:48:58;;;;;;;;;;;26.50;81.00;;;29.89;64.34;100785.81;4369620;39;97114;-78
2021/08/01 07:52:06;;;;;;;;;;;26.00;81.70;;;31.10;61.56;100775.59;4370537;39;97499;-78
2021/08/01 07:55:15;;;;;;;;;;;25.80;83.60;;;31.28;60.55;100781.38;4357200;39;97055;-78
2021/08/01 07:58:20;;;;;;;;;;;26.10;82.10;;;29.63;64.76;100782.09;4368658;39;98025;-78
2021/08/01 08:01:24;;;;;;;;;;;25.70;82.50;;;29.50;65.52;100788.72;4377373;39;97135;-78
2021/08/01 08:04:29;;;;;;;;;;;25.30;84.10;;;28.93;67.10;100784.75;4363026;39;97457;-78
2021/08/01 08:07:33;;;;;;;;;;;25.10;84.70;;;28.04;69.13;100783.91;4383855;39;96626;-78
2021/08/01 08:10:37;;;;;;;;;;;24.60;85.00;;;28.09;68.86;100787.00;4373438;39;97759;-78
2021/08/01 08:13:41;;;;;;;;;;;24.30;86.20;;;28.59;67.07;100787.72;4372247;39;97544;-78
2021/08/01 08:16:45;;;;;;;;;;;24.40;86.00;;;28.05;69.11;100783.50;4361107;39;97144;-78
2021/08/01 08:19:50;;;;;;;;;;;24.20;86.40;;;28.46;67.36;100784.00;4373242;39;98582;-78
2021/08/01 08:22:54;;;;;;;;;;;24.20;86.50;;;28.85;65.68;100784.09;4380520;39;97594;-78
2021/08/01 08:25:58;;;;;;;;;;;24.20;86.10;;;28.03;67.86;100787.88;4371965;39;97693;-78
2021/08/01 08:29:05;;;;;;;;;;;24.10;86.30;;;27.64;69.13;100785.69;4371863;39;98604;-78
2021/08/01 08:32:09;;;;;;;;;;;23.80;87.00;;;29.06;65.18;100790.00;4380968;39;98643;-78
2021/08/01 08:35:14;;;;;;;;;;;23.80;87.20;;;28.21;67.40;100778.13;4378199;39;96811;-79
2021/08/01 08:38:18;;;;;;;;;;;23.90;87.10;;;28.26;67.40;100783.19;4364758;39;97891;-78
2021/08/01 08:41:22;;;;;;;;;;;23.70;87.70;;;29.70;63.53;100781.13;4378275;39;97280;-77
2021/08/01 08:44:26;;;;;;;;;;;24.10;87.90;;;29.62;63.93;100785.28;4363149;39;97878;-78
2021/08/01 08:47:36;;;;;;;;;;;24.40;86.60;;;28.63;66.80;100779.38;4376408;39;97337;-77
2021/08/01 08:50:42;;;;;;;;;;;24.40;86.20;;;28.49;67.39;100783.16;4363213;39;97523;-78
2021/08/01 08:53:49;;;;;;;;;;;24.30;86.50;;;28.56;67.27;100785.03;4378004;39;97612;-77
2021/08/01 08:56:57;;;;;;;;;;;24.30;86.60;;;29.25;64.94;100788.44;4380160;39;97569;-78
2021/08/01 09:00:06;;;;;;;;;;;24.50;85.90;;;28.42;67.58;100782.53;4372823;39;96827;-78
2021/08/01 09:03:10;;;;;;;;;;;24.40;85.80;;;27.81;69.77;100789.41;4369538;39;99309;-78
2021/08/01 09:06:15;;;;;;;;;;;24.10;87.00;;;27.87;69.00;100783.00;4373884;39;97449;-78
2021/08/01 09:09:20;;;;;;;;;;;23.80;87.10;;;27.88;68.98;100787.31;4375908;39;97176;-78
2021/08/01 09:12:24;;;;;;;;;;;23.80;88.00;;;28.96;65.74;100787.44;4375894;39;97079;-78
2021/08/01 09:15:29;;;;;;;;;;;23.80;87.50;;;28.69;66.05;100786.75;4369847;39;96995;-78
2021/08/01 09:18:33;;;;;;;;;;;24.00;86.70;;;27.83;68.75;100789.78;4376544;39;98646;-78
2021/08/01 09:21:39;;;;;;;;;;;23.80;87.40;;;27.39;70.36;100785.25;4355255;39;97592;-79
2021/08/01 09:24:46;;;;;;;;;;;23.50;88.20;;;28.47;66.88;100780.06;4372785;39;97649;-77
2021/08/01 09:27:50;;;;;;;;;;;23.70;88.30;;;30.70;60.89;100779.09;4375388;39;96716;-77
2021/08/01 09:30:57;;;;;;;;;;;24.20;87.70;;;28.72;66.55;100783.16;4367567;39;96843;-77
2021/08/01 09:34:01;;;;;;;;;;;24.40;86.20;;;27.11;70.99;100798.56;4375513;39;97418;-78
2021/08/01 09:37:09;;;;;;;;;;;23.90;86.80;;;27.25;70.85;100798.41;4380559;39;97467;-77
2021/08/01 09:40:15;;;;;;;;;;;23.60;88.10;;;31.13;59.47;100791.34;4372776;39;99799;-77
2021/08/01 09:43:18;;;;;;;;;;;24.00;88.10;;;32.27;57.19;100786.19;4377807;39;97050;-75
2021/08/01 09:46:37;;;;;;;;;;;25.00;86.30;;;30.82;62.10;100784.66;4366661;39;97170;-75
2021/08/01 09:49:41;;;;;;;;;;;25.50;85.00;;;29.90;64.84;100781.84;4379038;39;97739;-76
2021/08/01 09:52:46;;;;;;;;;;;25.40;84.70;;;31.12;61.83;100798.84;4373009;39;97531;-76
2021/08/01 09:56:17;;;;;;;;;;;25.60;84.90;;;30.56;63.15;100791.31;4368701;39;98179;-74
2021/08/01 09:59:23;;;;;;;;;;;25.80;83.70;;;30.49;64.10;100787.91;4375953;39;96784;-75
2021/08/01 10:02:37;;;;;;;;;;;25.80;84.10;;;30.01;65.56;100802.53;4378467;39;98614;-76
2021/08/01 10:05:42;;;;;;;;;;;25.70;84.50;;;29.79;66.13;100808.97;4378714;39;97570;-76
2021/08/01 10:08:49;;;;;;;;;;;25.50;84.60;;;30.49;63.90;100801.72;4365359;39;97570;-76
2021/08/01 10:11:53;;;;;;;;;;;25.60;84.80;;;30.39;64.38;100802.78;4378753;39;97775;-76
2021/08/01 10:14:57;;;;;;;;;;;25.60;84.80;;;31.03;63.10;100806.19;4378748;39;96931;-77
2021/08/01 10:18:05;;;;;;;;;;;25.80;84.80;;;31.09;62.26;100821.84;4380094;39;97602;-76
2021/08/01 10:21:10;;;;;;;;;;;26.00;84.10;;;30.40;64.27;100824.47;4356343;39;98547;-76
2021/08/01 10:24:24;;;;;;;;;;;25.90;83.50;;;30.37;64.57;100817.03;4378542;39;96754;-76
2021/08/01 10:27:28;;;;;;;;;;;25.90;83.80;;;30.48;64.33;100825.88;4365160;39;98018;-76
2021/08/01 10:30:33;;;;;;;;;;;25.90;84.30;;;29.98;65.61;100821.94;4375530;39;97265;-76
2021/08/01 10:33:49;;;;;;;;;;;25.80;84.00;;;29.05;67.13;100834.56;4372049;39;97956;-73
2021/08/01 10:36:56;;;;;;;;;;;25.50;83.20;;;28.12;69.23;100838.50;4370788;39;97508;-75
2021/08/01 10:40:04;;;;;;;;;;;24.90;83.60;;;28.55;68.01;100833.91;4377860;39;96647;-75
2021/08/01 10:43:12;;;;;;;;;;;24.60;84.50;;;30.05;63.45;100832.88;4381063;39;97588;-75
2021/08/01 10:46:19;;;;;;;;;;;24.90;84.80;;;31.27;60.56;100830.47;4375475;39;98486;-75
2021/08/01 10:49:24;;;;;;;;;;;25.50;84.20;;;31.35;61.04;100840.13;4370114;39;96829;-76
2021/08/01 10:52:31;;;;;;;;;;;26.00;83.00;;;30.90;62.34;100849.69;4376690;39;97960;-75
2021/08/01 10:55:37;;;;;;;;;;;26.10;82.20;;;30.90;62.30;100836.59;4378049;39;97673;-75
2021/08/01 10:58:41;;;;;;;;;;;26.10;82.40;;;31.12;62.41;100840.38;4359973;39;96825;-74
2021/08/01 11:02:15;;;;;;;;;;;26.20;82.90;;;31.18;62.76;100844.16;4380619;39;97814;-75
2021/08/01 11:05:36;;;;;;;;;;;26.40;83.40;;;30.65;64.09;100832.19;4376474;39;96751;-75
2021/08/01 11:09:08;;;;;;;;;;;26.30;82.80;;;30.91;63.59;100829.09;4380535;39;97596;-76
2021/08/01 11:12:32;;;;;;;;;;;26.20;82.70;;;31.07;63.35;100827.03;4363458;39;98704;-76
2021/08/01 11:15:47;;;;;;;;;;;26.40;83.10;;;30.95;63.75;100833.31;4371917;39;98534;-75
2021/08/01 11:18:51;;;;;;;;;;;26.40;83.20;;;30.76;64.19;100827.91;4374353;39;96781;-74
2021/08/01 11:21:55;;;;;;;;;;;26.30;83.10;;;30.87;64.31;100828.41;4376195;39;97110;-74
2021/08/01 11:25:19;;;;;;;;;;;26.30;83.40;;;30.47;65.45;100848.41;4376230;39;98045;-75
2021/08/01 11:28:28;;;;;;;;;;;26.20;83.90;;;29.07;69.21;100863.31;4365187;39;97415;-75
2021/08/01 11:31:33;;;;;;;;;;;25.70;84.90;;;27.66;71.67;100890.69;4370377;39;96751;-74
2021/08/01 11:34:37;;;;;;;;;;;24.90;85.20;;;26.33;73.10;100887.66;4373339;39;97703;-74
2021/08/01 11:37:41;;;;;;;;;;;24.10;84.60;;;25.39;74.62;100897.13;4379589;39;98626;-74
2021/08/01 11:40:47;;;;;;;;;;;23.30;85.40;;;24.60;76.21;100888.59;4369279;39;98460;-74
2021/08/01 11:43:58;;;;;;;;;;;22.60;86.30;;;24.00;76.43;100903.38;4377762;39;97558;-73
2021/08/01 11:47:07;;;;;;;;;;;21.90;87.30;;;23.80;77.67;100904.06;4367536;39;97518;-72
2021/08/01 11:50:12;;;;;;;;;;;21.40;89.10;;;23.86;77.00;100908.03;4374771;39;98854;-72
2021/08/01 11:53:16;;;;;;;;;;;21.10;90.10;;;23.81;76.79;100911.13;4381340;39;98291;-72
2021/08/01 11:56:21;;;;;;;;;;;20.90;90.40;;;23.81;77.02;100906.44;4377427;39;96931;-76
2021/08/01 11:59:27;;;;;;;;;;;20.70;90.80;;;23.69;76.78;100898.56;4363734;39;97611;-76
2021/08/01 12:02:30;;;;;;;;;;;20.60;90.90;;;23.49;75.30;100882.84;4358302;39;97154;-76
2021/08/01 12:05:42;;;;;;;;;;;20.50;90.40;;;23.50;76.41;100878.94;4373994;39;97253;-76
2021/08/01 12:08:45;;;;;;;;;;;20.40;91.00;;;23.57;76.99;100889.91;4375044;39;97648;-76
2021/08/01 12:11:52;;;;;;;;;;;20.30;91.30;;;23.80;76.32;100882.19;4377372;39;97932;-76
2021/08/01 12:14:58;;;;;;;;;;;20.30;91.50;;;24.05;75.46;100895.59;4378839;39;97541;-76
2021/08/01 12:18:04;;;;;;;;;;;20.40;91.50;;;24.07;76.11;100895.97;4378503;39;97212;-76
2021/08/01 12:21:28;;;;;;;;;;;20.50;91.60;;;23.99;76.42;100891.63;4380570;39;98164;-76
2021/08/01 12:24:38;;;;;;;;;;;20.50;91.60;;;23.94;75.68;100891.25;4372730;39;97183;-76
2021/08/01 12:27:42;;;;;;;;;;;20.40;91.50;;;24.13;75.45;100899.09;4376725;39;97669;-76
2021/08/01 12:30:49;;;;;;;;;;;20.40;91.70;;;24.65;74.48;100885.50;4378765;39;97575;-76
2021/08/01 12:33:52;;;;;;;;;;;20.60;91.80;;;25.39;72.44;100879.91;4378924;39;97526;-76
2021/08/01 12:36:57;;;;;;;;;;;20.90;91.60;;;26.06;71.08;100886.66;4373797;39;97094;-77
2021/08/01 12:40:04;;;;;;;;;;;21.30;91.10;;;26.55;69.63;100881.59;4383485;39;96647;-77
2021/08/01 12:43:10;;;;;;;;;;;21.70;90.70;;;26.65;69.43;100885.47;4371062;39;97614;-77
2021/08/01 12:46:20;;;;;;;;;;;22.00;90.10;;;26.81;69.00;100882.97;4385555;39;98254;-77
2021/08/01 12:49:24;;;;;;;;;;;22.20;89.70;;;26.90;69.08;100883.25;4377062;39;97420;-77
2021/08/01 12:52:28;;;;;;;;;;;22.40;89.60;;;26.80;69.42;100871.19;4363979;39;97611;-76
2021/08/01 12:55:32;;;;;;;;;;;22.50;89.00;;;26.54;70.05;100868.28;4378670;39;97504;-77
2021/08/01 12:58:38;;;;;;;;;;;22.50;88.70;;;26.49;70.06;100863.22;4382132;39;97551;-77
2021/08/01 13:01:45;;;;;;;;;;;22.40;89.10;;;26.46;70.04;100864.78;4376370;39;97620;-77
2021/08/01 13:04:49;;;;;;;;;;;22.40;89.00;;;26.45;70.14;100871.47;4372146;39;97734;-77
2021/08/01 13:07:53;;;;;;;;;;;22.40;89.10;;;26.76;70.22;100875.16;4379402;39;97388;-77
2021/08/01 13:10:57;;;;;;;;;;;22.50;90.10;;;26.98;69.93;100877.28;4367530;39;97487;-77
2021/08/01 13:14:04;;;;;;;;;;;22.70;90.20;;;27.37;69.80;100875.72;4378353;39;97570;-77
2021/08/01 13:17:09;;;;;;;;;;;22.90;90.60;;;27.79;68.97;100864.19;4378732;39;97601;-77
2021/08/01 13:20:33;;;;;;;;;;;23.20;90.20;;;28.17;68.66;100867.56;4378596;39;98970;-77
2021/08/01 13:23:40;;;;;;;;;;;23.50;90.10;;;27.92;70.06;100869.91;4382486;39;98455;-77
2021/08/01 13:26:44;;;;;;;;;;;23.70;89.80;;;27.71;71.19;100865.47;4371349;39;97375;-77
2021/08/01 13:29:49;;;;;;;;;;;23.70;90.00;;;27.70;71.41;100869.44;4372969;39;97563;-78
2021/08/01 13:32:55;;;;;;;;;;;23.70;90.20;;;27.02;72.85;100863.50;4369844;39;97696;-77
2021/08/01 13:35:58;;;;;;;;;;;23.50;89.90;;;26.55;73.83;100869.84;4376803;39;96558;-76
2021/08/01 13:39:04;;;;;;;;;;;23.30;90.00;;;26.49;74.14;100857.72;4379061;39;96942;-77
2021/08/01 13:42:10;;;;;;;;;;;23.00;90.40;;;26.11;74.91;100861.50;4364354;39;97547;-77
2021/08/01 13:45:16;;;;;;;;;;;22.80;90.70;;;25.97;75.18;100861.59;4374060;39;97479;-77
2021/08/01 13:48:21;;;;;;;;;;;22.70;91.10;;;26.32;74.94;100861.34;4375894;39;97982;-77
2021/08/01 13:51:25;;;;;;;;;;;22.70;91.40;;;26.75;74.07;100868.09;4372202;39;97097;-77
2021/08/01 13:54:29;;;;;;;;;;;22.80;91.50;;;27.07;73.45;100863.81;4363138;39;97518;-77
2021/08/01 13:57:33;;;;;;;;;;;23.00;91.40;;;27.55;72.21;100865.25;4371819;39;97773;-77
2021/08/01 14:00:38;;;;;;;;;;;23.30;91.20;;;27.78;72.07;100864.63;4370907;39;96775;-76
2021/08/01 14:03:44;;;;;;;;;;;23.50;91.00;;;27.86;71.70;100855.81;4384440;39;96620;-78
2021/08/01 14:06:48;;;;;;;;;;;23.70;90.60;;;27.95;71.85;100860.81;4373306;39;96850;-75
2021/08/01 14:09:53;;;;;;;;;;;23.80;90.50;;;27.92;71.93;100847.88;4346096;39;98471;-75